createdAt,value
2018-12-29T00:00:23.741Z,29.37
2018-12-29T00:02:55.975Z,21.53
2018-12-29T00:05:26.089Z,24.10
2018-12-29T00:07:55.229Z,23.73
2018-12-29T00:10:24.323Z,19.13
2018-12-29T00:12:54.139Z,29.03
2018-12-29T00:15:24.657Z,29.00
2018-12-29T00:17:53.876Z,32.27
2018-12-29T00:20:27.246Z,27.63
2018-12-29T00:23:00.917Z,23.83
2018-12-29T00:25:37.374Z,27.90
2018-12-29T00:28:09.411Z,28.73
2018-12-29T00:30:41.643Z,22.20
2018-12-29T00:33:10.774Z,21.60
2018-12-29T00:35:39.887Z,32.73
2018-12-29T00:38:08.965Z,26.20
2018-12-29T00:40:40.091Z,24.90
2018-12-29T00:43:08.956Z,26.57
2018-12-29T00:45:42.629Z,25.83
2018-12-29T00:48:15.563Z,26.60
2018-12-29T00:50:45.935Z,18.07
2018-12-29T00:53:17.784Z,25.77
2018-12-29T00:55:49.515Z,25.80
2018-12-29T00:58:23.900Z,26.40
2018-12-29T01:00:54.713Z,25.87
2018-12-29T01:03:24.927Z,22.07
2018-12-29T01:05:55.922Z,24.87
2018-12-29T01:08:28.502Z,17.83
2018-12-29T01:10:57.699Z,23.97
2018-12-29T01:13:26.920Z,26.53
2018-12-29T01:15:58.807Z,20.83
2018-12-29T01:18:27.904Z,24.03
2018-12-29T01:20:57.105Z,24.77
2018-12-29T01:23:28.240Z,28.23
2018-12-29T01:26:00.023Z,18.70
2018-12-29T01:28:29.163Z,25.20
2018-12-29T01:31:03.088Z,27.93
2018-12-29T01:33:32.220Z,28.17
2018-12-29T01:36:01.356Z,27.93
2018-12-29T01:38:31.954Z,29.17
2018-12-29T01:41:01.139Z,26.00
2018-12-29T01:43:33.394Z,18.63
2018-12-29T01:46:04.522Z,25.73
2018-12-29T01:48:33.629Z,20.50
2018-12-29T01:51:02.749Z,22.40
2018-12-29T01:53:32.236Z,24.13
2018-12-29T01:56:03.252Z,21.33
2018-12-29T01:58:34.947Z,28.70
2018-12-29T02:01:05.648Z,22.37
2018-12-29T02:03:38.055Z,26.20
2018-12-29T02:06:07.220Z,26.87
2018-12-29T02:08:37.935Z,21.10
2018-12-29T02:11:07.177Z,28.57
2018-12-29T02:13:36.266Z,27.10
2018-12-29T02:16:07.820Z,18.77
2018-12-29T02:18:36.289Z,25.90
2018-12-29T02:21:05.470Z,22.30
2018-12-29T02:23:36.038Z,24.93
2018-12-29T02:26:07.557Z,23.70
2018-12-29T02:28:37.029Z,32.43
2018-12-29T02:31:09.065Z,27.07
2018-12-29T02:33:39.384Z,20.73
2018-12-29T02:36:08.819Z,22.40
2018-12-29T02:38:37.907Z,30.80
2018-12-29T02:41:08.418Z,24.50
2018-12-29T02:43:37.493Z,26.33
2018-12-29T02:46:06.752Z,25.07
2018-12-29T02:48:40.460Z,29.27
2018-12-29T02:51:09.573Z,30.53
2018-12-29T02:53:38.671Z,27.53
2018-12-29T02:56:11.252Z,25.80
2018-12-29T02:58:41.150Z,25.93
2018-12-29T03:01:10.347Z,23.00
2018-12-29T03:03:39.538Z,22.17
2018-12-29T03:06:08.633Z,21.27
2018-12-29T03:08:37.721Z,32.30
2018-12-29T03:11:08.670Z,29.70
2018-12-29T03:13:39.461Z,25.43
2018-12-29T03:16:08.498Z,20.07
2018-12-29T03:18:42.173Z,28.70
2018-12-29T03:21:12.906Z,29.10
2018-12-29T03:23:41.988Z,25.87
2018-12-29T03:26:12.706Z,28.40
2018-12-29T03:28:42.207Z,25.47
2018-12-29T03:31:12.568Z,25.23
2018-12-29T03:33:41.660Z,27.23
2018-12-29T03:36:12.952Z,28.63
2018-12-29T03:38:48.240Z,28.77
2018-12-29T03:41:17.366Z,29.13
2018-12-29T03:43:46.464Z,29.50
2018-12-29T03:46:16.536Z,29.90
2018-12-29T03:48:45.676Z,23.50
2018-12-29T03:51:15.791Z,30.97
2018-12-29T03:54:05.577Z,28.57
2018-12-29T03:56:34.728Z,27.53
2018-12-29T03:59:04.143Z,25.30
2018-12-29T04:01:34.754Z,29.47
2018-12-29T04:04:03.894Z,29.17
2018-12-29T04:06:33.461Z,26.93
2018-12-29T04:09:36.792Z,30.60
2018-12-29T04:12:20.313Z,28.30
2018-12-29T04:14:49.411Z,29.07
2018-12-29T04:17:19.504Z,29.17
2018-12-29T04:19:49.964Z,30.27
2018-12-29T04:22:19.111Z,24.57
2018-12-29T04:24:54.415Z,27.63
2018-12-29T04:27:23.508Z,31.30
2018-12-29T04:29:52.627Z,25.10
2018-12-29T04:32:22.606Z,27.30
2018-12-29T04:34:52.405Z,30.73
2018-12-29T04:37:26.222Z,31.40
2018-12-29T04:39:55.477Z,27.33
2018-12-29T04:42:30.844Z,22.40
2018-12-29T04:44:59.946Z,21.87
2018-12-29T04:47:29.038Z,29.87
2018-12-29T04:50:04.016Z,32.90
2018-12-29T04:52:33.229Z,24.40
2018-12-29T04:55:04.116Z,28.63
2018-12-29T04:57:33.222Z,24.07
2018-12-29T05:00:02.324Z,25.37
2018-12-29T05:02:31.514Z,34.90
2018-12-29T05:05:00.628Z,31.43
2018-12-29T05:07:30.148Z,35.53
2018-12-29T05:09:59.251Z,28.23
2018-12-29T05:12:31.577Z,31.03
2018-12-29T05:15:00.674Z,25.33
2018-12-29T05:17:29.771Z,25.83
2018-12-29T05:20:01.128Z,21.83
2018-12-29T05:22:32.118Z,25.30
2018-12-29T05:25:02.587Z,22.17
2018-12-29T05:27:37.472Z,26.70
2018-12-29T05:30:09.260Z,23.87
2018-12-29T05:32:41.065Z,24.50
2018-12-29T05:35:12.376Z,32.60
2018-12-29T05:37:44.144Z,25.57
2018-12-29T05:40:13.686Z,25.40
2018-12-29T05:42:45.291Z,24.13
2018-12-29T05:45:14.413Z,19.57
2018-12-29T05:47:43.512Z,27.57
2018-12-29T05:50:12.675Z,25.73
2018-12-29T05:52:41.749Z,22.30
2018-12-29T05:55:11.830Z,23.97
2018-12-29T05:57:41.711Z,24.63
2018-12-29T06:00:12.186Z,28.43
2018-12-29T06:02:42.772Z,26.13
2018-12-29T06:05:11.920Z,33.63
2018-12-29T06:07:41.000Z,26.50
2018-12-29T06:10:10.218Z,22.53
2018-12-29T06:12:40.308Z,24.37
2018-12-29T06:15:09.401Z,27.70
2018-12-29T06:17:38.475Z,27.67
2018-12-29T06:20:09.506Z,25.67
2018-12-29T06:22:39.808Z,23.33
2018-12-29T06:25:09.230Z,29.57
2018-12-29T06:27:38.371Z,25.10
2018-12-29T06:30:10.886Z,22.10
2018-12-29T06:32:42.601Z,23.37
2018-12-29T06:35:13.011Z,22.63
2018-12-29T06:37:42.085Z,21.93
2018-12-29T06:40:11.208Z,22.50
2018-12-29T06:42:42.107Z,28.20
2018-12-29T06:45:11.221Z,23.23
2018-12-29T06:47:40.351Z,30.33
2018-12-29T06:50:11.965Z,19.53
2018-12-29T06:52:41.070Z,27.37
2018-12-29T06:55:10.245Z,27.07
2018-12-29T06:57:39.338Z,22.00
2018-12-29T07:00:09.860Z,22.67
2018-12-29T07:02:39.026Z,25.80
2018-12-29T07:05:08.319Z,22.13
2018-12-29T07:07:38.624Z,28.90
2018-12-29T07:10:09.218Z,16.20
2018-12-29T07:12:38.394Z,16.87
2018-12-29T07:15:07.523Z,20.97
2018-12-29T07:17:36.667Z,23.17
2018-12-29T07:20:06.646Z,21.30
2018-12-29T07:22:35.767Z,21.17
2018-12-29T07:25:05.791Z,23.97
2018-12-29T07:27:34.891Z,21.63
2018-12-29T07:30:03.989Z,26.47
2018-12-29T07:32:33.221Z,23.97
2018-12-29T07:35:03.401Z,21.87
2018-12-29T07:37:32.509Z,24.30
2018-12-29T07:40:01.594Z,24.30
2018-12-29T07:42:34.106Z,24.30
2018-12-29T07:45:03.238Z,20.20
2018-12-29T07:47:33.213Z,20.30
2018-12-29T07:50:02.409Z,23.67
2018-12-29T07:52:31.745Z,20.53
2018-12-29T07:55:05.146Z,19.90
2018-12-29T07:57:34.310Z,21.40
2018-12-29T08:00:05.307Z,21.37
2018-12-29T08:02:34.873Z,26.00
2018-12-29T08:05:06.786Z,18.90
2018-12-29T08:07:35.895Z,19.80
2018-12-29T08:10:05.591Z,25.43
2018-12-29T08:12:40.677Z,19.67
2018-12-29T08:15:11.013Z,21.57
2018-12-29T08:17:40.108Z,24.00
2018-12-29T08:20:09.277Z,26.00
2018-12-29T08:22:38.457Z,24.57
2018-12-29T08:25:12.290Z,20.53
2018-12-29T08:27:41.375Z,20.07
2018-12-29T08:30:11.624Z,22.43
2018-12-29T08:32:41.138Z,15.87
2018-12-29T08:35:13.187Z,25.03
2018-12-29T08:37:45.280Z,26.33
2018-12-29T08:40:14.485Z,26.00
2018-12-29T08:42:43.574Z,19.13
2018-12-29T08:45:12.711Z,21.70
2018-12-29T08:47:41.803Z,21.30
2018-12-29T08:50:13.536Z,21.33
2018-12-29T08:52:42.843Z,27.53
2018-12-29T08:55:11.946Z,23.20
2018-12-29T08:57:42.492Z,24.47
2018-12-29T09:00:17.954Z,20.40
2018-12-29T09:02:47.154Z,21.23
2018-12-29T09:05:18.287Z,23.20
2018-12-29T09:07:47.718Z,23.10
2018-12-29T09:10:16.856Z,27.30
2018-12-29T09:12:46.862Z,19.73
2018-12-29T09:15:17.846Z,24.77
2018-12-29T09:17:46.951Z,23.43
2018-12-29T09:20:16.106Z,21.00
2018-12-29T09:22:46.885Z,23.63
2018-12-29T09:25:17.561Z,17.87
2018-12-29T09:27:46.762Z,23.30
2018-12-29T09:30:15.839Z,25.73
2018-12-29T09:32:46.771Z,17.73
2018-12-29T09:35:15.833Z,25.30
2018-12-29T09:37:45.013Z,24.37
2018-12-29T09:40:16.238Z,21.63
2018-12-29T09:42:46.687Z,22.90
2018-12-29T09:45:20.431Z,24.97
2018-12-29T09:47:51.872Z,24.80
2018-12-29T09:50:21.049Z,21.30
2018-12-29T09:52:50.274Z,24.40
2018-12-29T09:55:19.414Z,41.03
2018-12-29T09:57:48.564Z,22.93
2018-12-29T10:00:21.222Z,27.03
2018-12-29T10:02:50.812Z,31.07
2018-12-29T10:05:19.905Z,28.50
2018-12-29T10:07:49.008Z,26.80
2018-12-29T10:10:19.307Z,32.00
2018-12-29T10:12:53.211Z,25.43
2018-12-29T10:15:26.202Z,29.43
2018-12-29T10:17:56.898Z,24.30
2018-12-29T10:20:26.026Z,23.97
2018-12-29T10:22:55.154Z,26.47
2018-12-29T10:25:26.398Z,22.60
2018-12-29T10:27:57.310Z,25.10
2018-12-29T10:30:27.576Z,21.43
2018-12-29T10:32:57.259Z,27.50
2018-12-29T10:35:26.425Z,27.33
2018-12-29T10:37:55.530Z,28.97
2018-12-29T10:40:26.514Z,23.90
2018-12-29T10:42:55.764Z,24.33
2018-12-29T10:45:24.899Z,30.60
2018-12-29T10:47:54.009Z,23.13
2018-12-29T10:50:29.276Z,21.87
2018-12-29T10:53:00.231Z,25.40
2018-12-29T10:55:30.339Z,24.53
2018-12-29T10:57:59.431Z,24.07
2018-12-29T11:00:35.384Z,22.80
2018-12-29T11:03:04.650Z,27.90
2018-12-29T11:05:36.204Z,26.50
2018-12-29T11:08:05.445Z,28.40
2018-12-29T11:10:36.738Z,31.90
2018-12-29T11:13:08.347Z,25.67
2018-12-29T11:15:41.286Z,29.80
2018-12-29T11:18:10.432Z,32.17
2018-12-29T11:20:43.350Z,22.30
2018-12-29T11:23:18.573Z,22.27
2018-12-29T11:25:48.103Z,25.33
2018-12-29T11:28:19.271Z,24.63
2018-12-29T11:30:48.766Z,20.33
2018-12-29T11:33:17.894Z,24.73
2018-12-29T11:35:47.845Z,24.97
2018-12-29T11:38:16.987Z,29.03
2018-12-29T11:40:47.535Z,25.23
2018-12-29T11:43:19.778Z,27.57
2018-12-29T11:45:57.649Z,28.70
2018-12-29T11:48:29.728Z,28.07
2018-12-29T11:51:01.204Z,33.00
2018-12-29T11:53:32.737Z,32.83
2018-12-29T11:56:01.841Z,21.23
2018-12-29T11:58:32.358Z,26.30
2018-12-29T12:01:01.506Z,31.63
2018-12-29T12:03:32.145Z,25.77
2018-12-29T12:06:03.604Z,22.80
2018-12-29T12:08:37.122Z,30.07
2018-12-29T12:11:06.252Z,28.27
2018-12-29T12:13:35.515Z,24.97
2018-12-29T12:16:04.640Z,28.10
2018-12-29T12:18:33.956Z,22.10
2018-12-29T12:21:04.935Z,33.33
2018-12-29T12:23:34.046Z,28.23
2018-12-29T12:26:03.804Z,30.93
2018-12-29T12:28:32.927Z,28.10
2018-12-29T12:31:08.053Z,28.77
2018-12-29T12:33:37.490Z,27.13
2018-12-29T12:36:06.722Z,25.87
2018-12-29T12:38:37.719Z,29.83
2018-12-29T12:41:08.230Z,30.90
2018-12-29T12:43:40.181Z,23.97
2018-12-29T12:46:10.672Z,28.73
2018-12-29T12:48:41.144Z,27.80
2018-12-29T12:51:13.390Z,23.20
2018-12-29T12:53:46.641Z,39.13
2018-12-29T12:56:19.391Z,25.53
2018-12-29T12:58:48.912Z,23.70
2018-12-29T13:01:19.412Z,36.77
2018-12-29T13:03:50.314Z,29.63
2018-12-29T13:06:19.470Z,31.40
2018-12-29T13:08:55.777Z,34.60
2018-12-29T13:11:25.353Z,27.43
2018-12-29T13:13:55.942Z,29.57
2018-12-29T13:16:25.110Z,31.07
2018-12-29T13:18:54.300Z,26.30
2018-12-29T13:21:23.492Z,23.43
2018-12-29T13:23:54.425Z,33.67
2018-12-29T13:26:23.540Z,30.83
2018-12-29T13:28:53.735Z,26.00
2018-12-29T13:31:22.963Z,26.33
2018-12-29T13:33:53.409Z,26.77
2018-12-29T13:36:27.784Z,27.30
2018-12-29T13:38:56.908Z,26.77
2018-12-29T13:41:26.131Z,23.00
2018-12-29T13:43:55.269Z,25.63
2018-12-29T13:46:24.387Z,30.23
2018-12-29T13:48:53.496Z,28.40
2018-12-29T13:51:23.690Z,29.30
2018-12-29T13:53:52.885Z,28.33
2018-12-29T13:56:24.074Z,26.37
2018-12-29T13:58:58.432Z,30.93
2018-12-29T14:01:27.519Z,27.20
2018-12-29T14:03:59.976Z,27.23
2018-12-29T14:06:29.094Z,26.87
2018-12-29T14:09:00.608Z,23.03
2018-12-29T14:11:30.927Z,27.10
2018-12-29T14:14:01.194Z,30.07
2018-12-29T14:16:32.898Z,28.43
2018-12-29T14:19:03.646Z,28.27
2018-12-29T14:21:37.282Z,26.23
2018-12-29T14:24:11.042Z,26.10
2018-12-29T14:26:41.530Z,26.20
2018-12-29T14:29:14.379Z,29.30
2018-12-29T14:31:43.442Z,28.57
2018-12-29T14:34:12.552Z,28.43
2018-12-29T14:36:42.769Z,34.10
2018-12-29T14:39:15.448Z,24.77
2018-12-29T14:41:46.180Z,27.00
2018-12-29T14:44:21.385Z,26.57
2018-12-29T14:46:50.557Z,21.27
2018-12-29T14:49:19.674Z,19.83
2018-12-29T14:51:53.530Z,21.13
2018-12-29T14:54:22.760Z,22.93
2018-12-29T14:56:51.872Z,20.90
2018-12-29T14:59:23.825Z,19.07
2018-12-29T15:01:52.945Z,12.57
2018-12-29T15:04:22.077Z,13.80
2018-12-29T15:06:51.202Z,23.83
2018-12-29T15:09:22.168Z,18.97
2018-12-29T15:11:51.701Z,19.63
2018-12-29T15:14:23.313Z,19.67
2018-12-29T15:16:54.454Z,13.97
2018-12-29T15:19:24.628Z,15.83
2018-12-29T15:21:53.799Z,15.27
2018-12-29T15:24:24.439Z,17.10
2018-12-29T15:26:53.553Z,17.30
2018-12-29T15:29:25.475Z,15.23
2018-12-29T15:31:57.429Z,17.37
2018-12-29T15:34:31.477Z,16.23
2018-12-29T15:37:06.314Z,24.20
2018-12-29T15:39:38.749Z,16.77
2018-12-29T15:42:09.190Z,16.53
2018-12-29T15:44:39.917Z,15.90
2018-12-29T15:47:11.410Z,18.83
2018-12-29T15:49:40.594Z,17.47
2018-12-29T15:52:11.589Z,15.83
2018-12-29T15:54:44.208Z,16.83
2018-12-29T15:57:17.662Z,17.60
2018-12-29T15:59:44.261Z,21.20
2018-12-29T16:02:13.587Z,14.23
2018-12-29T16:04:43.434Z,19.23
2018-12-29T16:07:12.538Z,21.13
2018-12-29T16:09:41.822Z,23.97
2018-12-29T16:12:11.507Z,24.93
2018-12-29T16:14:41.091Z,26.30
2018-12-29T16:17:10.192Z,21.07
2018-12-29T16:19:41.013Z,31.73
2018-12-29T16:22:12.920Z,23.77
2018-12-29T16:24:42.050Z,17.87
2018-12-29T16:27:13.403Z,20.50
2018-12-29T16:29:46.104Z,19.50
2018-12-29T16:32:15.189Z,23.47
2018-12-29T16:34:45.796Z,24.40
2018-12-29T16:37:14.959Z,23.00
2018-12-29T16:39:44.382Z,16.80
2018-12-29T16:42:13.498Z,18.23
2018-12-29T16:44:42.639Z,19.53
2018-12-29T16:47:12.961Z,14.33
2018-12-29T16:49:42.560Z,18.67
2018-12-29T16:52:12.102Z,17.70
2018-12-29T16:54:44.034Z,19.93
2018-12-29T16:57:16.703Z,22.53
2018-12-29T16:59:45.808Z,25.90
2018-12-29T17:02:16.336Z,19.87
2018-12-29T17:04:48.112Z,24.20
2018-12-29T17:07:19.166Z,18.43
2018-12-29T17:09:52.736Z,20.40
2018-12-29T17:12:23.465Z,19.87
2018-12-29T17:14:59.359Z,20.50
2018-12-29T17:17:28.529Z,27.97
2018-12-29T17:19:57.613Z,26.40
2018-12-29T17:22:32.283Z,21.43
2018-12-29T17:25:02.885Z,15.77
2018-12-29T17:27:34.719Z,27.77
2018-12-29T17:30:03.832Z,23.13
2018-12-29T17:32:34.040Z,18.43
2018-12-29T17:35:03.162Z,19.43
2018-12-29T17:37:34.781Z,15.67
2018-12-29T17:40:05.668Z,22.20
2018-12-29T17:42:34.872Z,16.03
2018-12-29T17:45:06.011Z,16.20
2018-12-29T17:47:35.279Z,10.67
2018-12-29T17:50:04.495Z,9.70
2018-12-29T17:52:35.434Z,13.10
2018-12-29T17:55:13.995Z,12.20
2018-12-29T17:57:44.172Z,8.23
2018-12-29T18:00:13.265Z,11.50
2018-12-29T18:02:42.409Z,14.73
2018-12-29T18:05:15.140Z,13.13
2018-12-29T18:07:47.114Z,13.83
2018-12-29T18:10:16.619Z,13.70
2018-12-29T18:12:46.760Z,13.23
2018-12-29T18:15:18.016Z,12.63
2018-12-29T18:17:47.301Z,14.87
2018-12-29T18:20:18.951Z,10.93
2018-12-29T18:22:48.039Z,13.70
2018-12-29T18:25:17.170Z,9.90
2018-12-29T18:27:51.959Z,9.27
2018-12-29T18:30:21.079Z,8.73
2018-12-29T18:32:50.255Z,13.70
2018-12-29T18:35:19.404Z,13.47
2018-12-29T18:37:49.490Z,7.30
2018-12-29T18:40:18.960Z,7.47
2018-12-29T18:42:48.537Z,12.40
2018-12-29T18:45:19.247Z,9.83
2018-12-29T18:47:48.347Z,8.37
2018-12-29T18:50:17.458Z,10.43
2018-12-29T18:52:46.586Z,7.07
2018-12-29T18:55:17.067Z,11.23
2018-12-29T18:57:47.022Z,7.60
2018-12-29T19:00:16.454Z,12.43
2018-12-29T19:02:50.898Z,13.90
2018-12-29T19:05:20.109Z,10.57
2018-12-29T19:07:50.442Z,11.07
2018-12-29T19:10:20.539Z,12.73
2018-12-29T19:12:54.930Z,10.57
2018-12-29T19:15:25.623Z,12.80
2018-12-29T19:17:59.593Z,12.87
2018-12-29T19:20:29.028Z,10.20
2018-12-29T19:23:04.394Z,10.73
2018-12-29T19:25:33.561Z,14.73
2018-12-29T19:28:03.331Z,14.13
2018-12-29T19:30:32.715Z,12.80
2018-12-29T19:33:02.264Z,13.43
2018-12-29T19:35:35.280Z,11.60
2018-12-29T19:38:09.190Z,10.40
2018-12-29T19:40:43.147Z,11.00
2018-12-29T19:43:12.810Z,10.20
2018-12-29T19:45:41.882Z,9.83
2018-12-29T19:48:11.378Z,8.73
2018-12-29T19:50:43.991Z,9.30
2018-12-29T19:53:13.492Z,8.47
2018-12-29T19:55:45.082Z,8.03
2018-12-29T19:58:14.189Z,12.30
2018-12-29T20:00:43.288Z,10.93
2018-12-29T20:03:14.320Z,12.53
2018-12-29T20:05:48.212Z,10.10
2018-12-29T20:08:17.389Z,9.20
2018-12-29T20:10:50.151Z,8.87
2018-12-29T20:13:22.049Z,7.73
2018-12-29T20:16:03.452Z,6.30
2018-12-29T20:18:32.703Z,9.17
2018-12-29T20:21:06.075Z,10.03
2018-12-29T20:23:37.454Z,7.87
2018-12-29T20:26:06.637Z,12.10
2018-12-29T20:28:38.822Z,6.20
2018-12-29T20:31:12.808Z,8.60
2018-12-29T20:33:42.002Z,9.13
2018-12-29T20:36:11.125Z,10.33
2018-12-29T20:38:40.218Z,6.97
2018-12-29T20:41:09.637Z,11.77
2018-12-29T20:43:43.630Z,5.80
2018-12-29T20:46:13.845Z,12.07
2018-12-29T20:48:44.770Z,13.07
2018-12-29T20:51:13.923Z,9.40
2018-12-29T20:53:48.603Z,10.17
2018-12-29T20:56:17.770Z,7.50
2018-12-29T20:58:51.374Z,9.00
2018-12-29T21:01:25.011Z,9.63
2018-12-29T21:03:54.117Z,10.70
2018-12-29T21:06:24.363Z,9.57
2018-12-29T21:08:58.287Z,8.90
2018-12-29T21:11:27.670Z,7.30
2018-12-29T21:13:56.802Z,12.60
2018-12-29T21:16:33.606Z,9.47
2018-12-29T21:19:05.088Z,24.80
2018-12-29T21:21:34.188Z,8.83
2018-12-29T21:24:03.262Z,11.73
2018-12-29T21:26:32.371Z,12.77
2018-12-29T21:29:03.132Z,10.50
2018-12-29T21:31:40.490Z,10.00
2018-12-29T21:34:09.575Z,7.03
2018-12-29T21:36:38.704Z,8.73
2018-12-29T21:39:11.540Z,9.97
2018-12-29T21:41:40.689Z,8.40
2018-12-29T21:44:09.787Z,6.70
2018-12-29T21:46:38.897Z,5.60
2018-12-29T21:49:08.199Z,8.53
2018-12-29T21:51:38.380Z,4.30
2018-12-29T21:54:07.977Z,3.10
2018-12-29T21:56:37.048Z,2.77
2018-12-29T21:59:06.138Z,3.70
2018-12-29T22:01:35.238Z,2.33
2018-12-29T22:04:05.836Z,3.43
2018-12-29T22:06:35.331Z,4.03
2018-12-29T22:09:07.747Z,2.07
2018-12-29T22:11:37.950Z,4.13
2018-12-29T22:14:08.930Z,1.43
2018-12-29T22:16:44.625Z,2.60
2018-12-29T22:19:17.883Z,2.60
2018-12-29T22:22:04.163Z,4.07
2018-12-29T22:24:35.152Z,3.60
2018-12-29T22:27:04.286Z,2.07
2018-12-29T22:29:35.092Z,2.33
2018-12-29T22:32:04.563Z,2.70
2018-12-29T22:34:33.733Z,4.50
2018-12-29T22:37:03.068Z,3.53
2018-12-29T22:39:32.442Z,2.00
2018-12-29T22:42:02.628Z,3.13
2018-12-29T22:44:34.200Z,1.80
2018-12-29T22:47:03.311Z,2.03
2018-12-29T22:49:32.410Z,3.90
2018-12-29T22:52:01.499Z,2.43
2018-12-29T22:54:30.675Z,3.23
2018-12-29T22:56:59.773Z,3.00
2018-12-29T22:59:31.596Z,2.90
2018-12-29T23:02:01.121Z,3.63
2018-12-29T23:04:31.905Z,3.67
2018-12-29T23:07:02.094Z,7.60
2018-12-29T23:09:34.839Z,4.87
2018-12-29T23:12:06.421Z,5.10
2018-12-29T23:14:40.727Z,4.00
2018-12-29T23:17:13.039Z,3.47
2018-12-29T23:19:42.138Z,3.13
2018-12-29T23:22:11.236Z,3.43
2018-12-29T23:24:40.392Z,6.63
2018-12-29T23:27:10.972Z,5.93
2018-12-29T23:29:43.109Z,4.23
2018-12-29T23:32:15.532Z,6.07
2018-12-29T23:34:45.972Z,4.80
2018-12-29T23:37:17.507Z,3.80
2018-12-29T23:39:46.593Z,5.77
2018-12-29T23:42:15.685Z,9.70
2018-12-29T23:44:44.786Z,5.17
2018-12-29T23:47:15.982Z,6.60
2018-12-29T23:49:45.094Z,7.83
2018-12-29T23:52:14.648Z,6.27
2018-12-29T23:54:46.927Z,7.90
2018-12-29T23:57:23.528Z,6.63
2018-12-29T23:59:53.064Z,9.13
